Time;durP1;ratioP1;P1;durP2;ratioP2;P2;SDS_P1;SDS_P2;PMS_P1;PMS_P2;Temp;Humidity;BMP_temperature;BMP_pressure;BME280_temperature;BME280_humidity;BME280_pressure;Samples;Min_cycle;Max_cycle;Signal;HPM_P1;HPM_P2
2021/08/15 00:01:52;;;;;;;3.75;3.20;;;22.80;61.80;;;;;;5111667;28;20185;-64
2021/08/15 00:04:17;;;;;;;4.13;3.38;;;22.80;61.80;;;;;;5113591;28;20173;-64
2021/08/15 00:06:43;;;;;;;3.85;3.42;;;22.80;61.70;;;;;;5113235;28;20173;-63
2021/08/15 00:09:08;;;;;;;4.07;3.67;;;22.80;61.70;;;;;;5112770;28;20636;-64
2021/08/15 00:11:34;;;;;;;4.57;3.83;;;22.80;61.80;;;;;;5113186;28;20173;-64
2021/08/15 00:14:00;;;;;;;4.15;3.60;;;22.80;61.80;;;;;;5113149;28;20232;-64
2021/08/15 00:16:28;;;;;;;3.95;3.05;;;22.80;61.70;;;;;;5112175;28;20169;-64
2021/08/15 00:18:53;;;;;;;4.85;3.60;;;22.80;61.70;;;;;;5113204;28;20211;-63
2021/08/15 00:21:19;;;;;;;4.05;3.65;;;22.80;61.70;;;;;;5112826;28;20177;-63
2021/08/15 00:23:44;;;;;;;3.60;3.30;;;22.80;61.70;;;;;;5111964;28;20755;-63
2021/08/15 00:26:10;;;;;;;3.30;2.97;;;22.80;61.70;;;;;;5113001;28;20165;-63
2021/08/15 00:28:36;;;;;;;3.45;3.13;;;22.70;61.60;;;;;;5112521;28;20642;-65
2021/08/15 00:31:02;;;;;;;3.75;3.33;;;22.70;61.60;;;;;;5112070;28;20643;-64
2021/08/15 00:33:27;;;;;;;4.30;3.50;;;22.70;61.60;;;;;;5112397;28;20221;-64
2021/08/15 00:35:53;;;;;;;3.95;3.30;;;22.70;61.60;;;;;;5112352;28;20572;-63
2021/08/15 00:38:18;;;;;;;4.10;3.67;;;22.80;61.80;;;;;;5112766;28;20180;-64
2021/08/15 00:40:44;;;;;;;5.20;3.80;;;22.70;62.50;;;;;;5111869;28;20181;-64
2021/08/15 00:43:09;;;;;;;3.85;3.55;;;22.70;61.60;;;;;;5093594;28;20570;-64
2021/08/15 00:45:35;;;;;;;3.70;3.35;;;22.70;61.60;;;;;;5112598;28;20173;-64
2021/08/15 00:48:08;;;;;;;4.15;3.40;;;22.70;61.50;;;;;;5112820;28;20169;-65
2021/08/15 00:50:34;;;;;;;3.65;3.35;;;22.70;61.60;;;;;;5111904;28;20189;-63
2021/08/15 00:52:59;;;;;;;4.53;3.42;;;22.70;61.60;;;;;;5117329;27;20718;-64
2021/08/15 00:55:25;;;;;;;3.75;3.15;;;22.70;61.70;;;;;;5132665;27;20173;-63
2021/08/15 00:57:50;;;;;;;4.22;3.38;;;22.70;61.60;;;;;;5132367;28;20772;-64
2021/08/15 01:00:16;;;;;;;4.00;3.58;;;22.70;61.60;;;;;;5132862;28;20169;-63
2021/08/15 01:02:42;;;;;;;3.97;3.63;;;22.70;61.60;;;;;;5132459;28;20312;-64
2021/08/15 01:05:08;;;;;;;4.10;3.70;;;22.70;61.60;;;;;;5113881;28;20165;-66
2021/08/15 01:07:34;;;;;;;4.03;3.63;;;22.70;61.70;;;;;;5132600;28;20172;-64
2021/08/15 01:10:00;;;;;;;3.83;3.42;;;22.70;61.70;;;;;;5132837;28;20617;-64
2021/08/15 01:12:26;;;;;;;4.20;3.80;;;22.70;61.70;;;;;;5131625;28;20183;-63
2021/08/15 01:14:52;;;;;;;4.07;3.50;;;22.70;61.70;;;;;;5133031;28;20179;-64
2021/08/15 01:17:17;;;;;;;4.68;3.90;;;22.70;61.70;;;;;;5132741;28;20168;-63
2021/08/15 01:19:43;;;;;;;4.03;3.60;;;22.70;61.70;;;;;;5131666;28;20204;-64
2021/08/15 01:22:08;;;;;;;4.03;3.63;;;22.70;61.60;;;;;;5132432;28;20642;-63
2021/08/15 01:24:34;;;;;;;4.50;4.03;;;22.70;61.70;;;;;;5114088;28;20188;-63
2021/08/15 01:26:59;;;;;;;4.57;3.72;;;22.70;61.70;;;;;;5132283;28;20179;-64
2021/08/15 01:29:26;;;;;;;3.78;3.20;;;22.60;61.60;;;;;;5132309;28;20168;-64
2021/08/15 01:31:51;;;;;;;4.13;3.45;;;22.70;61.70;;;;;;5132649;28;20173;-65
2021/08/15 01:34:17;;;;;;;5.38;4.18;;;22.70;61.70;;;;;;5132169;28;20295;-65
2021/08/15 01:36:43;;;;;;;4.28;3.70;;;22.70;61.80;;;;;;5132449;28;20540;-65
2021/08/15 01:39:08;;;;;;;4.07;3.50;;;22.60;61.70;;;;;;5132068;28;20164;-66
2021/08/15 01:41:33;;;;;;;4.35;3.70;;;22.60;61.80;;;;;;5132112;28;20184;-64
2021/08/15 01:44:00;;;;;;;5.32;4.07;;;22.60;61.70;;;;;;5132749;28;20165;-65
2021/08/15 01:46:32;;;;;;;4.20;3.80;;;22.60;61.70;;;;;;5131458;28;20171;-63
2021/08/15 01:48:58;;;;;;;4.03;3.63;;;22.60;61.70;;;;;;5132730;28;20267;-65
2021/08/15 01:51:24;;;;;;;4.68;3.72;;;22.60;61.70;;;;;;5134848;27;20204;-64
2021/08/15 01:53:53;;;;;;;4.70;3.92;;;22.60;61.80;;;;;;5123474;27;20235;-64
2021/08/15 01:56:19;;;;;;;5.15;3.85;;;22.60;61.70;;;;;;5115726;28;20166;-64
2021/08/15 01:58:44;;;;;;;4.40;3.97;;;22.60;61.80;;;;;;5115257;28;20177;-65
2021/08/15 02:01:14;;;;;;;4.13;3.72;;;22.60;61.80;;;;;;5114751;28;20165;-65
2021/08/15 02:03:40;;;;;;;4.95;3.78;;;22.60;61.70;;;;;;5115460;28;20196;-65
2021/08/15 02:06:05;;;;;;;4.22;3.58;;;22.60;61.70;;;;;;5115438;28;20165;-65
2021/08/15 02:08:31;;;;;;;4.93;4.43;;;22.60;61.70;;;;;;5114431;28;20551;-64
2021/08/15 02:10:56;;;;;;;5.50;3.88;;;22.60;61.80;;;;;;5115394;28;20173;-64
2021/08/15 02:13:22;;;;;;;4.18;3.50;;;22.60;61.80;;;;;;5115105;28;20196;-62
2021/08/15 02:15:47;;;;;;;4.30;3.83;;;22.60;61.80;;;;;;5114757;28;20165;-66
2021/08/15 02:18:13;;;;;;;3.75;3.38;;;22.60;61.80;;;;;;5115478;28;20177;-66
2021/08/15 02:20:42;;;;;;;4.32;3.92;;;22.60;61.80;;;;;;5114658;28;20176;-65
2021/08/15 02:23:07;;;;;;;4.75;3.83;;;22.60;61.90;;;;;;5114302;28;20678;-65
2021/08/15 02:25:33;;;;;;;5.35;3.83;;;22.50;61.80;;;;;;5114797;28;20648;-65
2021/08/15 02:27:58;;;;;;;4.90;4.43;;;22.50;61.80;;;;;;5114898;28;20208;-66
2021/08/15 02:30:24;;;;;;;4.20;3.65;;;22.50;61.70;;;;;;5114248;28;20173;-67
2021/08/15 02:32:50;;;;;;;4.90;3.78;;;22.60;61.80;;;;;;5115004;28;20209;-67
2021/08/15 02:35:16;;;;;;;4.25;3.47;;;22.50;61.80;;;;;;5114851;28;20263;-66
2021/08/15 02:37:45;;;;;;;4.53;3.67;;;22.50;61.80;;;;;;5114060;28;20189;-66
2021/08/15 02:40:11;;;;;;;3.78;3.47;;;22.50;61.80;;;;;;5114739;28;20180;-65
2021/08/15 02:42:37;;;;;;;4.22;3.88;;;22.50;61.90;;;;;;5114015;28;20481;-66
2021/08/15 02:45:04;;;;;;;4.68;3.97;;;22.50;61.80;;;;;;5114945;28;20251;-66
2021/08/15 02:47:29;;;;;;;3.70;3.40;;;22.50;61.90;;;;;;5114576;28;20231;-65
2021/08/15 02:49:55;;;;;;;3.88;3.50;;;22.50;61.90;;;;;;5113953;28;20588;-66
2021/08/15 02:52:20;;;;;;;4.20;3.80;;;22.50;61.80;;;;;;5114386;28;20283;-65
2021/08/15 02:54:46;;;;;;;4.63;4.10;;;22.50;61.80;;;;;;5134500;27;20182;-66
2021/08/15 02:57:11;;;;;;;5.05;3.55;;;22.50;61.90;;;;;;5134382;27;20168;-65
2021/08/15 02:59:40;;;;;;;4.82;4.10;;;22.50;61.90;;;;;;5134949;27;20248;-66
2021/08/15 03:02:13;;;;;;;3.97;3.58;;;22.50;61.90;;;;;;5133979;27;20525;-66
2021/08/15 03:04:38;;;;;;;4.10;3.65;;;22.50;61.90;;;;;;5134023;27;20179;-65
2021/08/15 03:07:04;;;;;;;4.20;3.50;;;22.50;61.90;;;;;;5134853;27;20172;-66
2021/08/15 03:09:29;;;;;;;3.88;3.55;;;22.40;61.90;;;;;;5134378;27;20169;-65
2021/08/15 03:11:55;;;;;;;5.30;3.90;;;22.50;61.90;;;;;;5133919;27;20172;-65
2021/08/15 03:14:21;;;;;;;4.47;4.07;;;22.50;62.00;;;;;;5134596;27;20287;-65
2021/08/15 03:16:46;;;;;;;4.60;3.70;;;22.50;61.90;;;;;;5134810;27;20175;-66
2021/08/15 03:19:12;;;;;;;4.20;3.83;;;22.50;61.90;;;;;;5133984;27;20191;-65
2021/08/15 03:21:39;;;;;;;4.85;3.83;;;22.40;61.90;;;;;;5134257;27;20169;-64
2021/08/15 03:24:05;;;;;;;4.43;3.88;;;22.40;61.90;;;;;;5134383;27;20584;-65
2021/08/15 03:26:31;;;;;;;4.70;4.30;;;22.40;61.90;;;;;;5133511;27;20172;-64
2021/08/15 03:28:57;;;;;;;4.43;4.03;;;22.40;61.90;;;;;;5134629;27;20230;-65
2021/08/15 03:31:23;;;;;;;4.22;3.83;;;22.40;61.90;;;;;;5134356;27;20181;-65
2021/08/15 03:33:48;;;;;;;4.68;3.75;;;22.40;61.90;;;;;;5133824;27;20234;-66
2021/08/15 03:36:14;;;;;;;4.18;3.78;;;22.50;62.00;;;;;;5134368;27;20176;-66
2021/08/15 03:38:39;;;;;;;4.00;3.70;;;22.40;61.90;;;;;;5133250;27;20545;-66
2021/08/15 03:41:05;;;;;;;3.88;3.50;;;22.40;61.90;;;;;;5134130;27;20199;-65
2021/08/15 03:43:30;;;;;;;4.63;3.95;;;22.40;62.00;;;;;;5134037;27;20265;-65
2021/08/15 03:45:56;;;;;;;4.88;4.38;;;22.40;61.90;;;;;;5133399;27;20571;-65
2021/08/15 03:48:21;;;;;;;3.80;3.40;;;22.40;61.90;;;;;;5133853;27;20188;-65
2021/08/15 03:50:47;;;;;;;4.38;3.78;;;22.40;62.00;;;;;;5134252;27;20175;-64
2021/08/15 03:53:12;;;;;;;5.50;3.65;;;22.40;62.00;;;;;;5126532;27;20189;-65
2021/08/15 03:55:38;;;;;;;3.75;3.45;;;22.40;62.00;;;;;;5113164;28;20208;-66
2021/08/15 03:58:05;;;;;;;4.68;3.63;;;22.40;62.00;;;;;;5113466;28;20176;-66
2021/08/15 04:00:31;;;;;;;6.85;3.67;;;22.40;62.00;;;;;;5112458;28;20165;-66
2021/08/15 04:02:56;;;;;;;4.30;3.45;;;22.40;61.90;;;;;;5113092;28;20177;-66
2021/08/15 04:05:22;;;;;;;4.90;4.45;;;22.40;62.00;;;;;;5113063;28;20192;-65
2021/08/15 04:07:47;;;;;;;4.82;4.03;;;22.40;62.00;;;;;;5112496;28;20173;-65
2021/08/15 04:10:13;;;;;;;4.35;4.00;;;22.30;61.80;;;;;;5113029;28;20521;-65
2021/08/15 04:12:38;;;;;;;4.28;3.88;;;22.30;61.90;;;;;;5112976;28;20609;-65
2021/08/15 04:15:05;;;;;;;3.83;3.40;;;22.40;62.80;;;;;;5112183;28;20268;-65
2021/08/15 04:17:30;;;;;;;5.25;4.00;;;22.40;62.00;;;;;;5112677;28;20200;-65
2021/08/15 04:19:55;;;;;;;3.95;3.55;;;22.30;61.90;;;;;;5112913;28;20177;-64
2021/08/15 04:22:21;;;;;;;5.28;3.88;;;22.30;61.80;;;;;;5111636;28;20746;-64
2021/08/15 04:24:46;;;;;;;5.78;4.18;;;22.30;61.90;;;;;;5112616;28;20180;-65
2021/08/15 04:27:12;;;;;;;7.15;4.18;;;22.30;61.80;;;;;;5112944;28;20180;-65
2021/08/15 04:29:39;;;;;;;5.13;4.30;;;22.40;62.00;;;;;;5111773;28;20173;-65
2021/08/15 04:32:06;;;;;;;4.22;3.83;;;22.30;61.80;;;;;;5112905;28;20183;-66
2021/08/15 04:34:32;;;;;;;4.20;3.80;;;22.30;62.70;;;;;;5112207;28;20277;-66
2021/08/15 04:36:57;;;;;;;4.18;3.72;;;22.30;61.80;;;;;;5111917;28;20619;-65
2021/08/15 04:39:23;;;;;;;4.18;3.78;;;22.30;61.90;;;;;;5112077;28;20184;-65
2021/08/15 04:41:48;;;;;;;4.82;4.28;;;22.30;62.70;;;;;;5112552;28;20192;-65
2021/08/15 04:44:14;;;;;;;4.20;3.80;;;22.30;61.80;;;;;;5111756;28;20211;-66
2021/08/15 04:46:39;;;;;;;4.93;4.07;;;22.30;61.80;;;;;;5111999;28;20997;-64
2021/08/15 04:49:05;;;;;;;3.97;3.60;;;22.30;61.90;;;;;;5111661;28;20165;-66
2021/08/15 04:51:30;;;;;;;4.90;4.25;;;22.30;61.80;;;;;;5111924;28;20173;-64
2021/08/15 04:53:56;;;;;;;3.78;3.40;;;22.30;61.80;;;;;;5124662;27;20256;-65
2021/08/15 04:56:21;;;;;;;4.18;3.50;;;22.30;61.80;;;;;;5131727;28;20220;-64
2021/08/15 04:58:47;;;;;;;3.97;3.60;;;22.30;61.80;;;;;;5132805;28;20195;-66
2021/08/15 05:01:12;;;;;;;3.58;3.28;;;22.30;61.80;;;;;;5132595;28;20173;-65
2021/08/15 05:03:38;;;;;;;5.20;3.85;;;22.30;61.80;;;;;;5131803;28;20207;-66
2021/08/15 05:06:03;;;;;;;4.22;3.83;;;22.30;61.80;;;;;;5132605;28;20172;-66
2021/08/15 05:08:30;;;;;;;4.10;3.75;;;22.30;61.80;;;;;;5132167;28;20192;-64
2021/08/15 05:10:58;;;;;;;4.20;3.80;;;22.30;61.80;;;;;;5132206;28;20176;-65
2021/08/15 05:13:27;;;;;;;4.43;4.03;;;22.30;61.70;;;;;;5132014;28;20631;-65
2021/08/15 05:15:53;;;;;;;3.78;3.47;;;22.30;61.80;;;;;;5132700;28;20180;-65
2021/08/15 05:18:18;;;;;;;3.88;3.55;;;22.30;61.80;;;;;;5131806;28;20179;-65
2021/08/15 05:20:44;;;;;;;4.90;4.18;;;22.30;61.80;;;;;;5132177;28;20207;-64
2021/08/15 05:23:09;;;;;;;4.07;3.72;;;22.30;61.80;;;;;;5132199;28;20628;-65
2021/08/15 05:25:35;;;;;;;4.70;3.47;;;22.30;61.80;;;;;;5132630;27;20690;-65
2021/08/15 05:28:00;;;;;;;4.00;3.60;;;22.30;61.80;;;;;;5136969;27;20184;-65
2021/08/15 05:30:26;;;;;;;3.63;3.30;;;22.30;61.80;;;;;;5136564;27;20172;-65
2021/08/15 05:32:51;;;;;;;5.00;4.22;;;22.30;61.80;;;;;;5135686;27;20200;-67
2021/08/15 05:35:17;;;;;;;4.28;3.88;;;22.30;61.80;;;;;;5136458;27;20191;-66
2021/08/15 05:37:42;;;;;;;4.82;4.25;;;22.30;61.80;;;;;;5135899;27;20264;-66
2021/08/15 05:40:08;;;;;;;5.45;3.70;;;22.30;61.80;;;;;;5135734;27;20192;-65
2021/08/15 05:42:34;;;;;;;4.10;3.67;;;22.30;61.80;;;;;;5136025;27;20172;-66
2021/08/15 05:44:59;;;;;;;4.43;4.03;;;22.30;61.80;;;;;;5136236;27;20176;-66
2021/08/15 05:47:25;;;;;;;4.00;3.70;;;22.30;61.80;;;;;;5135122;27;20175;-65
2021/08/15 05:49:51;;;;;;;5.78;3.70;;;22.30;61.80;;;;;;5136111;27;20626;-65
2021/08/15 05:52:16;;;;;;;4.50;3.97;;;22.20;61.80;;;;;;5135177;27;20212;-65
2021/08/15 05:54:42;;;;;;;5.55;4.10;;;22.30;61.80;;;;;;5116366;27;20207;-65
2021/08/15 05:57:07;;;;;;;4.20;3.80;;;22.30;61.80;;;;;;5115582;28;20165;-65
2021/08/15 05:59:33;;;;;;;3.58;3.28;;;22.30;61.80;;;;;;5114420;28;20280;-66
2021/08/15 06:01:59;;;;;;;4.60;3.92;;;22.30;61.80;;;;;;5115404;28;20685;-65
2021/08/15 06:04:25;;;;;;;4.18;3.78;;;22.40;61.90;;;;;;5115050;28;20260;-65
2021/08/15 06:06:50;;;;;;;3.67;3.38;;;22.30;61.80;;;;;;5114657;28;20477;-67
2021/08/15 06:09:16;;;;;;;4.20;3.88;;;22.30;61.80;;;;;;5115429;28;20173;-65
2021/08/15 06:11:41;;;;;;;4.40;3.90;;;22.30;62.70;;;;;;5114808;28;20520;-66
2021/08/15 06:14:07;;;;;;;3.83;3.53;;;22.40;61.90;;;;;;5114456;28;20208;-65
2021/08/15 06:16:32;;;;;;;3.83;3.53;;;22.40;61.90;;;;;;5114729;28;20172;-65
2021/08/15 06:18:58;;;;;;;4.53;3.75;;;22.40;62.70;;;;;;5115133;28;20202;-65
2021/08/15 06:21:23;;;;;;;3.80;3.50;;;22.40;61.90;;;;;;5113836;28;20200;-64
2021/08/15 06:23:49;;;;;;;4.15;3.78;;;22.40;61.90;;;;;;5114839;28;20225;-64
2021/08/15 06:26:15;;;;;;;4.25;3.72;;;22.40;61.90;;;;;;5114896;28;20690;-64
2021/08/15 06:28:41;;;;;;;4.10;3.80;;;22.40;61.90;;;;;;5114109;28;20264;-64
2021/08/15 06:31:06;;;;;;;4.25;3.55;;;22.40;61.90;;;;;;5114801;28;20623;-65
2021/08/15 06:33:32;;;;;;;3.75;3.42;;;22.40;61.90;;;;;;5114414;28;20265;-65
2021/08/15 06:35:57;;;;;;;4.63;4.22;;;22.40;61.90;;;;;;5114015;28;20177;-67
2021/08/15 06:38:23;;;;;;;4.32;3.85;;;22.40;61.80;;;;;;5113376;28;20172;-65
2021/08/15 06:40:48;;;;;;;4.28;3.53;;;22.40;61.80;;;;;;5114822;28;20200;-66
2021/08/15 06:43:14;;;;;;;4.20;3.80;;;22.40;61.90;;;;;;5114060;28;20615;-64
2021/08/15 06:45:40;;;;;;;5.15;4.10;;;22.40;61.90;;;;;;5114492;28;20173;-65
2021/08/15 06:48:05;;;;;;;4.22;3.83;;;22.50;61.90;;;;;;5114830;28;20169;-65
2021/08/15 06:50:31;;;;;;;4.80;3.58;;;22.50;61.80;;;;;;5113417;28;20173;-66
2021/08/15 06:52:57;;;;;;;3.95;3.60;;;22.50;61.70;;;;;;5119228;27;20200;-65
2021/08/15 06:55:22;;;;;;;4.88;4.07;;;22.50;61.60;;;;;;5134905;27;20601;-65
2021/08/15 06:57:48;;;;;;;4.40;4.00;;;22.50;61.60;;;;;;5134501;27;20722;-65
2021/08/15 07:00:14;;;;;;;4.47;3.70;;;22.60;61.60;;;;;;5135035;27;20638;-65
2021/08/15 07:02:40;;;;;;;4.20;3.80;;;22.60;61.60;;;;;;5133713;27;20184;-66
2021/08/15 07:05:07;;;;;;;4.95;3.90;;;22.60;62.50;;;;;;5134839;27;20176;-66
2021/08/15 07:07:32;;;;;;;4.15;3.75;;;22.60;61.60;;;;;;5134582;27;20251;-65
2021/08/15 07:09:58;;;;;;;4.38;3.97;;;22.60;61.50;;;;;;5134007;27;20168;-65
2021/08/15 07:12:23;;;;;;;4.50;4.10;;;22.70;61.60;;;;;;5134518;27;20214;-64
2021/08/15 07:14:49;;;;;;;4.18;3.78;;;22.60;61.50;;;;;;5134765;27;20216;-66
2021/08/15 07:17:14;;;;;;;4.30;3.88;;;22.70;61.60;;;;;;5133705;27;20321;-66
2021/08/15 07:19:40;;;;;;;4.90;4.38;;;22.70;61.60;;;;;;5134295;27;21094;-65
2021/08/15 07:22:05;;;;;;;3.80;3.50;;;22.70;61.50;;;;;;5134571;27;20177;-64
2021/08/15 07:24:31;;;;;;;5.03;3.92;;;22.70;61.50;;;;;;5133650;27;20668;-65
2021/08/15 07:26:57;;;;;;;4.00;3.70;;;22.70;61.50;;;;;;5134971;27;20191;-64
2021/08/15 07:29:23;;;;;;;4.60;4.00;;;22.70;61.50;;;;;;5134254;27;20176;-65
2021/08/15 07:31:48;;;;;;;4.22;3.83;;;22.80;61.70;;;;;;5133579;27;20626;-65
2021/08/15 07:34:13;;;;;;;4.38;4.03;;;22.80;61.60;;;;;;5134047;27;20227;-66
2021/08/15 07:36:39;;;;;;;5.18;3.80;;;22.80;61.60;;;;;;5133751;27;20512;-66
2021/08/15 07:39:05;;;;;;;4.57;4.18;;;22.80;61.70;;;;;;5133690;27;20176;-65
2021/08/15 07:41:30;;;;;;;4.47;4.00;;;22.80;61.60;;;;;;5133783;27;20245;-64
2021/08/15 07:43:56;;;;;;;4.40;3.92;;;22.90;61.50;;;;;;5133991;27;20241;-66
2021/08/15 07:46:21;;;;;;;4.15;3.75;;;22.90;61.50;;;;;;5133241;27;20507;-65
2021/08/15 07:48:47;;;;;;;4.25;3.85;;;22.90;61.60;;;;;;5133416;27;20714;-65
2021/08/15 07:51:12;;;;;;;5.00;4.47;;;22.90;61.40;;;;;;5134007;27;20180;-64
2021/08/15 07:53:38;;;;;;;4.28;3.88;;;22.90;61.50;;;;;;5122295;27;20560;-66
2021/08/15 07:56:03;;;;;;;4.20;3.80;;;22.90;61.60;;;;;;5113438;28;20185;-65
2021/08/15 07:58:29;;;;;;;4.30;3.90;;;22.90;61.60;;;;;;5112852;28;20642;-66
2021/08/15 08:00:55;;;;;;;4.18;3.78;;;22.90;61.60;;;;;;5112366;28;20179;-65
2021/08/15 08:03:21;;;;;;;3.85;3.55;;;22.90;61.70;;;;;;5112772;28;20208;-62
2021/08/15 08:05:47;;;;;;;4.95;3.83;;;22.90;61.70;;;;;;5112905;28;20189;-63
2021/08/15 08:08:12;;;;;;;3.92;3.63;;;22.90;61.70;;;;;;5112265;28;20211;-62
2021/08/15 08:10:38;;;;;;;5.32;3.60;;;23.00;61.80;;;;;;5112666;28;20180;-61
2021/08/15 08:13:06;;;;;;;5.43;4.18;;;23.00;61.90;;;;;;5112198;28;20196;-63
2021/08/15 08:15:31;;;;;;;4.50;4.10;;;22.90;61.90;;;;;;5112621;28;20623;-62
2021/08/15 08:17:57;;;;;;;4.32;3.88;;;23.00;62.00;;;;;;5112827;28;20255;-63
2021/08/15 08:20:22;;;;;;;5.50;4.32;;;23.00;61.90;;;;;;5111715;28;20169;-63
2021/08/15 08:22:48;;;;;;;4.38;3.97;;;23.00;61.90;;;;;;5112525;28;20221;-61
2021/08/15 08:25:14;;;;;;;5.22;4.07;;;23.00;61.70;;;;;;5112813;28;20189;-62
2021/08/15 08:27:39;;;;;;;4.53;3.90;;;23.00;61.70;;;;;;5111815;28;20188;-62
2021/08/15 08:30:06;;;;;;;4.00;3.60;;;23.00;61.70;;;;;;5112587;28;20177;-64
2021/08/15 08:32:31;;;;;;;6.30;4.45;;;23.00;61.70;;;;;;5112073;28;20267;-63
2021/08/15 08:34:57;;;;;;;4.50;3.30;;;23.00;61.70;;;;;;5111678;28;20267;-64
2021/08/15 08:37:22;;;;;;;4.07;3.33;;;23.00;61.70;;;;;;5112236;28;20177;-63
2021/08/15 08:39:48;;;;;;;4.28;3.88;;;23.00;61.80;;;;;;5112814;28;20184;-63
2021/08/15 08:42:13;;;;;;;4.47;3.88;;;23.00;61.80;;;;;;5111780;28;20658;-63
2021/08/15 08:44:39;;;;;;;6.22;3.67;;;23.00;61.80;;;;;;5093640;28;20202;-63
2021/08/15 08:47:07;;;;;;;4.70;4.13;;;23.00;61.80;;;;;;5093706;28;20533;-64
2021/08/15 08:49:33;;;;;;;4.28;3.88;;;23.00;61.70;;;;;;5111056;28;20184;-62
2021/08/15 08:51:59;;;;;;;5.68;3.80;;;23.00;61.60;;;;;;5112108;28;20180;-62
2021/08/15 08:54:25;;;;;;;5.85;4.15;;;23.10;61.60;;;;;;5110265;27;20204;-63
2021/08/15 08:56:51;;;;;;;4.72;4.20;;;23.10;61.50;;;;;;5132234;27;20180;-62
2021/08/15 08:59:16;;;;;;;4.95;3.90;;;23.10;61.50;;;;;;5132355;27;20173;-63
2021/08/15 09:01:42;;;;;;;5.07;4.28;;;23.10;61.80;;;;;;5131937;28;20172;-63
2021/08/15 09:04:09;;;;;;;3.80;3.50;;;23.10;61.60;;;;;;5132156;28;20176;-62
2021/08/15 09:06:36;;;;;;;5.72;3.78;;;23.20;61.70;;;;;;5132210;28;20614;-62
2021/08/15 09:09:13;;;;;;;6.53;4.18;;;23.20;61.60;;;;;;5114290;28;20279;-64
2021/08/15 09:11:38;;;;;;;4.90;4.38;;;23.20;62.20;;;;;;5132510;28;20160;-63
2021/08/15 09:14:09;;;;;;;4.80;4.10;;;23.20;61.70;;;;;;5132691;28;20564;-63
2021/08/15 09:17:01;;;;;;;3.83;3.53;;;23.20;61.80;;;;;;5131387;28;20176;-62
2021/08/15 09:19:29;;;;;;;4.47;3.85;;;23.20;61.80;;;;;;5132312;28;20172;-62
2021/08/15 09:21:56;;;;;;;4.60;3.58;;;23.30;61.80;;;;;;5132431;28;20180;-63
2021/08/15 09:24:22;;;;;;;5.05;3.97;;;23.30;61.70;;;;;;5131259;28;20384;-62
2021/08/15 09:26:55;;;;;;;4.80;3.70;;;23.40;61.70;;;;;;5132613;28;20275;-63
2021/08/15 09:29:21;;;;;;;4.82;3.30;;;23.40;61.70;;;;;;5132318;28;20255;-63
2021/08/15 09:31:47;;;;;;;4.50;3.53;;;23.40;61.60;;;;;;5131752;28;20260;-63
2021/08/15 09:34:23;;;;;;;3.83;3.40;;;23.40;61.50;;;;;;5096953;28;20288;-64
2021/08/15 09:36:49;;;;;;;4.35;3.50;;;23.40;61.50;;;;;;5113941;28;20176;-63
2021/08/15 09:39:15;;;;;;;4.45;4.05;;;23.50;61.40;;;;;;5113167;28;20172;-62
2021/08/15 09:41:48;;;;;;;6.82;3.90;;;23.50;61.30;;;;;;5131921;28;20208;-65
2021/08/15 09:44:21;;;;;;;4.40;3.75;;;23.50;61.20;;;;;;5115259;28;20188;-62
2021/08/15 09:47:04;;;;;;;5.15;3.50;;;23.60;61.30;;;;;;5132285;28;20172;-63
2021/08/15 09:49:33;;;;;;;4.63;3.88;;;23.60;61.20;;;;;;5131836;28;20240;-62
2021/08/15 09:51:58;;;;;;;4.18;3.78;;;23.60;61.10;;;;;;5131395;28;20191;-62
2021/08/15 09:54:24;;;;;;;4.70;4.18;;;23.70;61.10;;;;;;5114894;28;20208;-63
2021/08/15 09:56:49;;;;;;;4.22;3.72;;;23.70;61.10;;;;;;5111714;28;20169;-61
2021/08/15 09:59:22;;;;;;;5.63;4.60;;;23.70;61.90;;;;;;5092611;28;20177;-62
2021/08/15 10:01:49;;;;;;;5.95;3.97;;;23.70;61.00;;;;;;5111789;28;20173;-63
2021/08/15 10:04:15;;;;;;;5.07;3.75;;;23.70;61.10;;;;;;5111494;28;20540;-62
2021/08/15 10:06:44;;;;;;;4.18;3.72;;;23.70;61.30;;;;;;5110805;28;20173;-63
2021/08/15 10:09:09;;;;;;;4.70;3.90;;;23.60;61.30;;;;;;5111640;28;20173;-62
2021/08/15 10:11:35;;;;;;;6.10;3.95;;;23.60;61.40;;;;;;5112029;28;20185;-62
2021/08/15 10:14:05;;;;;;;4.25;3.20;;;23.60;61.40;;;;;;5114241;28;20728;-61
2021/08/15 10:16:32;;;;;;;4.25;3.60;;;23.60;61.60;;;;;;5114846;28;20240;-61
2021/08/15 10:18:59;;;;;;;4.25;3.85;;;23.60;61.60;;;;;;5114989;28;20657;-61
2021/08/15 10:21:25;;;;;;;5.20;3.92;;;23.60;61.40;;;;;;5078882;28;20620;-60
2021/08/15 10:23:50;;;;;;;5.35;3.55;;;23.70;61.50;;;;;;5079627;28;20225;-63
2021/08/15 10:26:25;;;;;;;4.38;3.97;;;23.70;61.40;;;;;;5115020;28;20668;-61
2021/08/15 10:28:50;;;;;;;3.50;3.20;;;23.70;61.60;;;;;;5114164;28;20184;-62
2021/08/15 10:31:16;;;;;;;4.63;3.83;;;23.70;61.30;;;;;;5114778;28;20238;-62
2021/08/15 10:33:55;;;;;;;5.38;3.65;;;23.70;61.30;;;;;;5095272;28;20555;-62
2021/08/15 10:36:28;;;;;;;6.45;3.60;;;23.70;61.30;;;;;;5114613;28;20194;-62
2021/08/15 10:38:55;;;;;;;3.88;3.53;;;23.80;61.20;;;;;;5114672;28;20197;-62
2021/08/15 10:41:45;;;;;;;4.47;3.58;;;23.90;61.20;;;;;;5113509;28;20662;-61
2021/08/15 10:44:11;;;;;;;3.85;3.42;;;23.90;61.20;;;;;;5114730;28;20264;-62
2021/08/15 10:46:57;;;;;;;4.53;3.72;;;24.00;61.10;;;;;;5114165;28;20181;-61
2021/08/15 10:49:46;;;;;;;5.15;3.70;;;24.00;61.00;;;;;;5113253;28;20256;-61
2021/08/15 10:52:34;;;;;;;4.35;3.40;;;24.00;60.90;;;;;;5114352;28;20195;-61
2021/08/15 10:55:00;;;;;;;6.20;3.42;;;24.00;61.00;;;;;;5113676;28;20328;-63
2021/08/15 10:57:47;;;;;;;3.53;3.22;;;24.00;61.10;;;;;;5114138;28;20256;-62
2021/08/15 11:00:31;;;;;;;5.38;3.40;;;24.00;61.10;;;;;;5100029;28;20181;-63
2021/08/15 11:03:22;;;;;;;4.55;3.10;;;24.00;61.00;;;;;;5113554;28;20300;-63
2021/08/15 11:05:48;;;;;;;4.28;3.50;;;24.00;61.00;;;;;;5114014;28;20191;-69
2021/08/15 11:08:32;;;;;;;3.67;3.33;;;24.00;60.80;;;;;;5096110;28;20180;-63
2021/08/15 11:11:07;;;;;;;4.20;3.60;;;24.00;60.80;;;;;;5113418;28;20181;-62
2021/08/15 11:13:33;;;;;;;4.47;3.58;;;24.00;60.90;;;;;;5113542;28;20684;-63
2021/08/15 11:16:27;;;;;;;4.15;3.05;;;24.00;60.80;;;;;;5113264;28;20309;-63
2021/08/15 11:19:08;;;;;;;4.10;3.70;;;24.00;60.70;;;;;;5113819;28;20212;-63
2021/08/15 11:22:02;;;;;;;5.28;3.58;;;24.10;60.70;;;;;;5113384;28;20173;-63
2021/08/15 11:24:29;;;;;;;4.82;3.25;;;24.10;60.60;;;;;;5111807;28;20251;-62
2021/08/15 11:26:57;;;;;;;6.18;3.38;;;24.10;60.60;;;;;;5114115;28;20606;-63
2021/08/15 11:29:23;;;;;;;4.63;3.35;;;24.10;60.70;;;;;;5113293;28;20180;-63
2021/08/15 11:31:51;;;;;;;5.68;3.35;;;24.10;60.80;;;;;;5113190;28;20181;-61
2021/08/15 11:34:17;;;;;;;3.88;3.13;;;24.10;60.90;;;;;;5113689;28;20209;-61
2021/08/15 11:36:42;;;;;;;5.32;3.50;;;24.00;61.00;;;;;;5113378;28;20182;-62
2021/08/15 11:39:08;;;;;;;5.53;3.05;;;24.00;61.00;;;;;;5112764;28;20173;-61
2021/08/15 11:41:35;;;;;;;4.45;3.40;;;24.00;61.00;;;;;;5113153;28;20166;-61
2021/08/15 11:44:00;;;;;;;6.25;4.07;;;24.00;60.90;;;;;;5112662;28;20578;-62
2021/08/15 11:46:26;;;;;;;3.28;2.92;;;24.00;60.90;;;;;;5112795;28;20169;-61
2021/08/15 11:48:51;;;;;;;3.95;3.00;;;24.00;60.80;;;;;;5113498;28;20263;-62
2021/08/15 11:51:17;;;;;;;2.92;2.55;;;24.00;60.80;;;;;;5112551;28;20173;-61
2021/08/15 11:53:44;;;;;;;5.10;3.10;;;24.00;60.80;;;;;;5123616;27;20608;-62
2021/08/15 11:56:19;;;;;;;4.93;3.03;;;24.00;60.70;;;;;;5133535;27;20177;-61
2021/08/15 11:58:45;;;;;;;3.88;2.97;;;24.00;60.80;;;;;;5133119;27;20186;-62
2021/08/15 12:01:11;;;;;;;4.03;3.17;;;24.00;60.80;;;;;;5133617;27;20212;-62
2021/08/15 12:03:36;;;;;;;4.05;2.65;;;24.00;60.60;;;;;;5133311;27;20209;-62
2021/08/15 12:06:03;;;;;;;4.30;2.88;;;24.10;60.50;;;;;;5132964;27;20230;-62
2021/08/15 12:08:41;;;;;;;3.03;2.70;;;24.10;60.30;;;;;;5133397;27;20177;-61
2021/08/15 12:11:28;;;;;;;5.55;2.90;;;24.20;60.30;;;;;;5133316;27;20631;-62
2021/08/15 12:14:08;;;;;;;3.97;3.17;;;24.20;60.30;;;;;;5132542;27;20722;-62
2021/08/15 12:16:34;;;;;;;3.78;2.85;;;24.20;60.30;;;;;;5133157;27;20621;-61
2021/08/15 12:19:00;;;;;;;3.13;2.38;;;24.20;60.20;;;;;;5133397;27;20168;-61
2021/08/15 12:21:29;;;;;;;4.55;2.92;;;24.20;61.10;;;;;;5132294;27;20232;-61
2021/08/15 12:23:57;;;;;;;3.97;2.60;;;24.20;60.20;;;;;;5133042;27;20240;-60
2021/08/15 12:26:31;;;;;;;3.20;2.72;;;24.30;60.10;;;;;;5132266;27;20169;-61
2021/08/15 12:29:02;;;;;;;3.17;2.70;;;24.30;59.90;;;;;;5133210;27;20164;-61
2021/08/15 12:31:28;;;;;;;3.70;2.63;;;24.30;60.00;;;;;;5132839;27;20252;-61
2021/08/15 12:34:04;;;;;;;2.97;2.63;;;24.30;59.90;;;;;;5132300;27;20220;-62
2021/08/15 12:36:37;;;;;;;3.42;2.50;;;24.30;59.90;;;;;;5132687;27;20228;-62
2021/08/15 12:39:04;;;;;;;5.35;2.55;;;24.30;59.90;;;;;;5116134;27;20180;-61
2021/08/15 12:41:44;;;;;;;3.38;2.80;;;24.30;59.90;;;;;;5132167;27;20266;-62
2021/08/15 12:44:10;;;;;;;3.50;2.88;;;24.30;59.80;;;;;;5133167;27;20196;-62
2021/08/15 12:46:36;;;;;;;4.60;2.85;;;24.40;59.80;;;;;;5132786;27;20181;-62
2021/08/15 12:49:21;;;;;;;4.15;2.70;;;24.30;59.80;;;;;;5132031;27;20176;-63